Berlin Dahlem, Germany

12:03 PM CEST on October 01, 2014 (GMT +0200)
Berlin centre | Change Station
CLOSE
Current Station
Personal Weather Station
Location: Berlin, BERLIN
Elevation: 148 ft
Nearby Weather Stations

Elev 148 ft 52.48 °N, 13.35 °E | Updated 11 minutes ago

Scattered Clouds
Scattered Clouds
63.3 °F
Feels Like 63.3 °F
N
-
Wind Variable Wind from North

Today
High -- | Low -- °F
--% Chance of Precip.
Yesterday
High -- | Low -- °F
Precip. -- in
7:07 AM 6:44 PM
Waxing Crescent, 46% visible
Pressure 30.33 in
Visibility 2.8 miles
Clouds Scattered Clouds 400 ft
Scattered Clouds 2000 ft
Dew Point 57 °F
Humidity 83%
Rainfall -999.00 in
Snow Depth Not available.
UV 3 out of 12
Pollen Not available.
Air Quality Not available.
Flu Activity Not available.
METAR EDDT 010950Z VRB02KT 4500 BR SCT004 SCT020 17/14 Q1027 BECMG 6000

More Conditions Fewer Conditions

Pressure 30.33 in
Visibility 2.8 miles
Clouds Scattered Clouds 400 ft
Scattered Clouds 2000 ft
Dew Point 57 °F
Humidity 83%
Rainfall -999.00 in
Snow Depth Not available.
UV 3 out of 12
Pollen Not available.
Air Quality Not available.
Flu Activity Not available.
METAR EDDT 010950Z VRB02KT 4500 BR SCT004 SCT020 17/14 Q1027 BECMG 6000

More Conditions Fewer Conditions

10-Day Weather Forecast

Almanac

Astronomy

Oct. 01, 2014 Rise Set
Actual Time 7:07 AM CEST 6:44 PM CEST
Civil Twilight 6:33 AM CEST 7:18 PM CEST
Nautical Twilight 5:53 AM CEST 7:57 PM CEST
Astronomical Twilight 5:12 AM CEST 8:38 PM CEST
Moon 2:28 PM CEST 11:25 PM CEST
Length of Visible Light 12h 44m
Length of Day
11h 36m
Tomorrow will be 4m 3s shorter.
Waxing Crescent, 46% of the Moon is Illuminated
Today
Waxing Crescent
Oct 1
First Quarter
Oct 8
Full
Oct 15
Last Quarter
Oct 23
New

Yesterday's Extremes

Country Highs Country Lows

Community

WunderPhotos

Upload Photos

1,757,904 photos uploaded!

WunderBlogs® & News

Nearby

Snow Depth

Not available.

Earthquake Activity

City Distance Mag. Time & Date
No recent earthquake activity has been reported nearby.
Minimum magnitude displayed is 2.5.

Coastal Water Temperatures

Place Temperature
No Stations Reporting

Nearby Weather Stations